Brook, IN (47922)

8:05 AM CDT on March 26, 2017 (GMT -0500)
Jasper County | | Change Station

Elev 699 ft 40.95 °N, 87.18 °W | Updated 10 minutes ago

Rain
Rain
54 °F
Feels Like 54 °F
N
9
Wind Variable Wind from ESE

Today
High -- | Low -- °F
--% Chance of Precip.
Yesterday
High -- | Low -- °F
Precip. -- in
Pressure 29.89 in
Visibility 3.0 miles
Clouds Mostly Cloudy 500 ft
Mostly Cloudy 2000 ft
Overcast 2900 ft
Dew Point 54 °F
Humidity 100%
Rainfall 1.35 in
Snow Depth Not available.
6:42 AM 7:08 PM
Waning Crescent, 3% visible
METAR KRZL 261255Z AUTO 11008KT 3SM +RA BKN005 BKN020 OVC029 12/12 A2989 RMK AO2 P0022
Pressure 29.89 in
Visibility 3.0 miles
Clouds Mostly Cloudy 500 ft
Mostly Cloudy 2000 ft
Overcast 2900 ft
Dew Point 54 °F
Humidity 100%
Rainfall 1.35 in
Snow Depth Not available.
6:42 AM 7:08 PM
Waning Crescent, 3% visible
METAR KRZL 261255Z AUTO 11008KT 3SM +RA BKN005 BKN020 OVC029 12/12 A2989 RMK AO2 P0022

Get Severe Weather Alerts

Thanks for signing up!

Be on the lookout for a verification email in your inbox.

You'll start receiving the daily forecast at 8 AM.

×

10-Day Weather Forecast

Almanac

Astronomy

Mar. 26, 2017 Rise Set
Actual Time
Civil Twilight
Nautical Twilight
Astronomical Twilight
Moon
Length of Visible Light
Length of Day
Tomorrow will be .
, % of the Moon is Illuminated

Today's Extremes

State Highs State Lows

Community

WunderPhotos

Upload Photos

1,962,540 photos uploaded!

WunderBlog® & News

Nearby

Air Quality

  Air Quality AQ Index Pollutant
Not available.

Snow Depth

Station Depth Elevation

Earthquake Activity

City Distance Mag. Time & Date
Minimum magnitude displayed is 2.5.

Earthquake Activity

City Distance Mag. Time & Date
Minimum magnitude displayed is 2.5.

Coastal Water Temperatures

Place Temperature

Stations

Nearby Weather Stations

Station Location Temp. Windchill Dew Point Humidity Wind Precip. Elev Updated Type
                   

Watches & Warnings

There are currently no watches in effect.